AirNav   Phillips 66 Aviation Fuel
 
 454 users online  

22FA Hidden River Airport
Sarasota, Florida, USA

GOING TO SARASOTA?


FAA INFORMATION EFFECTIVE 08 NOVEMBER 2018

Location

FAA Identifier: 22FA
Lat/Long: 27-18-11.1690N / 082-16-21.3280W
27-18.186150N / 082-16.355467W
27.3031025 / -82.2725911
(estimated)
Elevation: 47 ft. / 14.3 m (surveyed)
Variation: 02W (1985)
From city: 14 miles E of SARASOTA, FL
Time zone: UTC -5 (UTC -4 during Daylight Saving Time)
Zip code: 34240

Airport Operations

Airport use: Private use. Permission required prior to landing
Control tower: no
ARTCC: MIAMI CENTER
FSS: SAINT PETERSBURG FLIGHT SERVICE STATION
Attendance: UNATNDD
Wind indicator: yes
Segmented circle: no
Lights: ACTVT LIRL RY 09/27 - 122.9.

Airport Communications

WX ASOS at SRQ (16 nm W): 124.375 (941-355-8482)
WX AWOS-3 at VNC (17 nm SW): 119.275 (941-486-2718)

Nearby radio navigation aids

VOR radial/distance  VOR name  Freq  Var
SRQr117/16.7SARASOTA VOR/DME117.0005W
PGDr333/(27.6)PUNTA GORDA VOR110.2006W

Airport Services

Airframe service: NONE
Powerplant service: NONE

Runway Information

Runway 9/27

Dimensions: 2525 x 50 ft. / 770 x 15 m
Surface: asphalt
Runway edge lights: low intensity
RUNWAY 9  RUNWAY 27
Traffic pattern: leftleft
Obstructions: road, 300 ft. from runwaytrees, 850 ft. from runway

Airport Ownership and Management from official FAA records

Ownership: Privately-owned
Owner: HIDDEN RIVER ASSOCIATION, INC
3468 HIDDEN RIVER ROAD
SARASOTA, FL 34240
Phone 941-2098785
Manager: JOHN TAUB
3836 BAY TREE RD
SARASOTA, FL 34240
Phone 239-352-2968

Airport Operational Statistics

Aircraft based on the field: 35
Single engine airplanes: 30
Multi engine airplanes: 4
Ultralights: 1
    

Instrument Procedures

There are no published instrument procedures at 22FA.

Some nearby airports with instrument procedures:

KSRQ - Sarasota/Bradenton International Airport (16 nm W)
KVNC - Venice Municipal Airport (17 nm SW)
X06 - Arcadia Municipal Airport (24 nm E)
KCHN - Wauchula Municipal Airport (24 nm NE)
KPGD - Punta Gorda Airport (28 nm SE)
 
Loc | Ops | Rwys | IFR | FBO | Links
Com | Nav | Svcs | Stats | Notes


 
Area around 22FA (Hidden River Airport)
 
Road maps at: MapQuest Bing Google
 
Aerial photo
WARNING: Photo may not be current or correct
Aerial photo of 22FA (Hidden River Airport)
Photo courtesy of PhotosFromTheAir.com
Photo taken 20-Oct-2012

Do you have a better or more recent aerial photo of Hidden River Airport that you would like to share? If so, please send us your photo.

 
Sectional chart

 
Airport distance calculator
Flying to Hidden River Airport? Find the distance to fly.

From to 22FA

Sunrise and sunset
Times for 19-Nov-2018
 Local
(UTC-5)
 Zulu
(UTC)
Morning civil twilight06:2911:29
Sunrise06:5411:54
Sunset17:3522:35
Evening civil twilight18:0023:00

Current date and time
Zulu (UTC)  19-Nov-2018 06:28:22
Local (UTC-5)  19-Nov-2018 01:28:22
 
METAR
KVNC 
17nm SW 
190615Z AUTO 05004KT 10SM BKN055 BKN065 OVC095 21/17 A3009 RMK AO2
KSRQ 
17nm W 
190553Z AUTO 04005KT 10SM OVC055 21/17 A3007 RMK AO2 SLP181 T02110167 10228 20211 56008
KPGD 
27nm SE 
190553Z AUTO 00000KT 10SM SCT031 BKN055 OVC070 22/18 A3009 RMK AO2 SLP190 T02170183 10228 20217 56010
TAF
KSRQ 
17nm W 
190527Z 1906/2006 04004KT P6SM SCT050 BKN100 FM191400 04006KT P6SM SCT030 BKN050 FM191800 32008KT P6SM SCT050 BKN100 FM200000 02004KT P6SM BKN050 BKN250
NOTAMs
Click for the latest NOTAMs
NOTAMs are issued by the DoD/FAA and will open in a separate window not controlled by AirNav.

 

 
 

Would you like to see your business listed on this page?

 If your business provides an interesting product or service to pilots, flight crews, aircraft, or users of the Hidden River Airport, you should consider listing it here.  To start the listing process, click on the button below
 
Add a business
 

Other Pages about Hidden River Airport

www.hiddenriver.org
 
Update a link
 
Copyright © AirNav, LLC. All rights reserved. Privacy Policy  Contact